sensor_id;sensor_type;location;lat;lon;timestamp;P1;durP1;ratioP1;P2;durP2;ratioP2
13566;SDS011;6855;48.112;11.298;2023-03-31T00:00:01;5.60;;;3.37;;
13566;SDS011;6855;48.112;11.298;2023-03-31T00:02:35;9.20;;;3.90;;
13566;SDS011;6855;48.112;11.298;2023-03-31T00:05:05;7.90;;;3.97;;
13566;SDS011;6855;48.112;11.298;2023-03-31T00:07:34;6.83;;;3.93;;
13566;SDS011;6855;48.112;11.298;2023-03-31T00:10:02;5.83;;;3.30;;
13566;SDS011;6855;48.112;11.298;2023-03-31T00:12:29;7.60;;;3.90;;
13566;SDS011;6855;48.112;11.298;2023-03-31T00:14:57;4.30;;;3.47;;
13566;SDS011;6855;48.112;11.298;2023-03-31T00:17:24;5.63;;;3.50;;
13566;SDS011;6855;48.112;11.298;2023-03-31T00:19:51;16.93;;;4.63;;
13566;SDS011;6855;48.112;11.298;2023-03-31T00:22:24;8.40;;;3.57;;
13566;SDS011;6855;48.112;11.298;2023-03-31T00:24:53;8.40;;;3.73;;
13566;SDS011;6855;48.112;11.298;2023-03-31T00:27:21;5.60;;;3.90;;
13566;SDS011;6855;48.112;11.298;2023-03-31T00:29:48;7.33;;;4.00;;
13566;SDS011;6855;48.112;11.298;2023-03-31T00:32:17;4.77;;;3.47;;
13566;SDS011;6855;48.112;11.298;2023-03-31T00:34:44;9.10;;;3.30;;
13566;SDS011;6855;48.112;11.298;2023-03-31T00:37:11;5.67;;;3.67;;
13566;SDS011;6855;48.112;11.298;2023-03-31T00:39:40;5.40;;;3.57;;
13566;SDS011;6855;48.112;11.298;2023-03-31T00:42:09;8.13;;;3.40;;
13566;SDS011;6855;48.112;11.298;2023-03-31T00:44:38;7.17;;;3.73;;
13566;SDS011;6855;48.112;11.298;2023-03-31T00:47:09;8.50;;;3.50;;
13566;SDS011;6855;48.112;11.298;2023-03-31T00:49:39;8.87;;;3.50;;
13566;SDS011;6855;48.112;11.298;2023-03-31T00:52:09;16.57;;;6.07;;
13566;SDS011;6855;48.112;11.298;2023-03-31T00:54:38;8.77;;;3.87;;
13566;SDS011;6855;48.112;11.298;2023-03-31T00:57:06;4.70;;;3.60;;
13566;SDS011;6855;48.112;11.298;2023-03-31T00:59:36;5.63;;;3.60;;
13566;SDS011;6855;48.112;11.298;2023-03-31T01:02:04;6.33;;;3.37;;
13566;SDS011;6855;48.112;11.298;2023-03-31T01:04:32;7.60;;;3.70;;
13566;SDS011;6855;48.112;11.298;2023-03-31T01:07:02;5.63;;;3.50;;
13566;SDS011;6855;48.112;11.298;2023-03-31T01:09:33;10.83;;;4.10;;
13566;SDS011;6855;48.112;11.298;2023-03-31T01:12:03;11.63;;;3.40;;
13566;SDS011;6855;48.112;11.298;2023-03-31T01:14:32;5.77;;;3.40;;
13566;SDS011;6855;48.112;11.298;2023-03-31T01:17:01;10.63;;;4.00;;
13566;SDS011;6855;48.112;11.298;2023-03-31T01:19:32;7.50;;;3.40;;
13566;SDS011;6855;48.112;11.298;2023-03-31T01:25:05;8.07;;;3.53;;
13566;SDS011;6855;48.112;11.298;2023-03-31T01:27:49;11.43;;;4.10;;
13566;SDS011;6855;48.112;11.298;2023-03-31T01:33:10;5.17;;;3.23;;
13566;SDS011;6855;48.112;11.298;2023-03-31T01:38:32;8.30;;;3.50;;
13566;SDS011;6855;48.112;11.298;2023-03-31T01:41:19;10.33;;;3.80;;
13566;SDS011;6855;48.112;11.298;2023-03-31T01:43:48;7.33;;;4.37;;
13566;SDS011;6855;48.112;11.298;2023-03-31T01:46:20;13.23;;;3.83;;
13566;SDS011;6855;48.112;11.298;2023-03-31T01:48:51;10.00;;;4.30;;
13566;SDS011;6855;48.112;11.298;2023-03-31T01:51:21;6.40;;;3.70;;
13566;SDS011;6855;48.112;11.298;2023-03-31T01:53:53;5.13;;;3.60;;
13566;SDS011;6855;48.112;11.298;2023-03-31T01:56:29;5.00;;;3.17;;
13566;SDS011;6855;48.112;11.298;2023-03-31T01:58:58;6.33;;;3.23;;
13566;SDS011;6855;48.112;11.298;2023-03-31T02:01:28;6.90;;;3.30;;
13566;SDS011;6855;48.112;11.298;2023-03-31T02:03:57;6.80;;;3.30;;
13566;SDS011;6855;48.112;11.298;2023-03-31T02:06:27;6.40;;;4.00;;
13566;SDS011;6855;48.112;11.298;2023-03-31T02:08:57;9.47;;;3.80;;
13566;SDS011;6855;48.112;11.298;2023-03-31T02:11:27;8.27;;;3.73;;
13566;SDS011;6855;48.112;11.298;2023-03-31T02:13:56;8.03;;;3.80;;
13566;SDS011;6855;48.112;11.298;2023-03-31T02:16:29;5.87;;;3.33;;
13566;SDS011;6855;48.112;11.298;2023-03-31T02:18:56;13.33;;;4.13;;
13566;SDS011;6855;48.112;11.298;2023-03-31T02:21:26;5.70;;;3.20;;
13566;SDS011;6855;48.112;11.298;2023-03-31T02:23:54;6.70;;;3.73;;
13566;SDS011;6855;48.112;11.298;2023-03-31T02:26:22;10.23;;;3.50;;
13566;SDS011;6855;48.112;11.298;2023-03-31T02:28:52;4.87;;;3.10;;
13566;SDS011;6855;48.112;11.298;2023-03-31T02:31:22;4.97;;;3.60;;
13566;SDS011;6855;48.112;11.298;2023-03-31T02:33:52;7.43;;;3.80;;
13566;SDS011;6855;48.112;11.298;2023-03-31T02:36:20;6.53;;;3.27;;
13566;SDS011;6855;48.112;11.298;2023-03-31T02:38:48;5.60;;;3.63;;
13566;SDS011;6855;48.112;11.298;2023-03-31T02:41:17;4.33;;;3.40;;
13566;SDS011;6855;48.112;11.298;2023-03-31T02:43:45;4.23;;;2.70;;
13566;SDS011;6855;48.112;11.298;2023-03-31T02:46:13;3.60;;;3.27;;
13566;SDS011;6855;48.112;11.298;2023-03-31T02:48:41;5.60;;;3.23;;
13566;SDS011;6855;48.112;11.298;2023-03-31T02:51:28;5.67;;;3.87;;
13566;SDS011;6855;48.112;11.298;2023-03-31T02:54:05;11.60;;;4.00;;
13566;SDS011;6855;48.112;11.298;2023-03-31T02:56:42;9.30;;;3.70;;
13566;SDS011;6855;48.112;11.298;2023-03-31T02:59:19;6.70;;;3.50;;
13566;SDS011;6855;48.112;11.298;2023-03-31T03:01:55;6.83;;;3.70;;
13566;SDS011;6855;48.112;11.298;2023-03-31T03:04:39;6.00;;;3.63;;
13566;SDS011;6855;48.112;11.298;2023-03-31T03:07:22;9.33;;;3.63;;
13566;SDS011;6855;48.112;11.298;2023-03-31T03:09:56;5.00;;;3.00;;
13566;SDS011;6855;48.112;11.298;2023-03-31T03:12:25;6.40;;;3.63;;
13566;SDS011;6855;48.112;11.298;2023-03-31T03:14:54;8.17;;;3.30;;
13566;SDS011;6855;48.112;11.298;2023-03-31T03:17:26;7.57;;;3.47;;
13566;SDS011;6855;48.112;11.298;2023-03-31T03:19:55;9.53;;;3.27;;
13566;SDS011;6855;48.112;11.298;2023-03-31T03:22:22;9.30;;;3.70;;
13566;SDS011;6855;48.112;11.298;2023-03-31T03:24:50;6.43;;;4.20;;
13566;SDS011;6855;48.112;11.298;2023-03-31T03:27:17;7.10;;;3.83;;
13566;SDS011;6855;48.112;11.298;2023-03-31T03:29:46;6.93;;;3.37;;
13566;SDS011;6855;48.112;11.298;2023-03-31T03:32:13;8.97;;;4.10;;
13566;SDS011;6855;48.112;11.298;2023-03-31T03:34:42;13.47;;;4.47;;
13566;SDS011;6855;48.112;11.298;2023-03-31T03:37:15;8.93;;;4.23;;
13566;SDS011;6855;48.112;11.298;2023-03-31T03:39:42;11.40;;;4.23;;
13566;SDS011;6855;48.112;11.298;2023-03-31T03:42:09;6.80;;;3.50;;
13566;SDS011;6855;48.112;11.298;2023-03-31T03:44:37;9.50;;;3.87;;
13566;SDS011;6855;48.112;11.298;2023-03-31T03:47:04;9.53;;;4.47;;
13566;SDS011;6855;48.112;11.298;2023-03-31T03:49:34;4.13;;;3.40;;
13566;SDS011;6855;48.112;11.298;2023-03-31T03:52:03;10.00;;;4.20;;
13566;SDS011;6855;48.112;11.298;2023-03-31T03:54:30;12.57;;;4.47;;
13566;SDS011;6855;48.112;11.298;2023-03-31T03:56:57;14.00;;;4.37;;
13566;SDS011;6855;48.112;11.298;2023-03-31T03:59:25;11.23;;;3.90;;
13566;SDS011;6855;48.112;11.298;2023-03-31T04:01:52;10.07;;;3.73;;
13566;SDS011;6855;48.112;11.298;2023-03-31T04:04:19;11.50;;;4.60;;
13566;SDS011;6855;48.112;11.298;2023-03-31T04:06:46;6.67;;;4.03;;
13566;SDS011;6855;48.112;11.298;2023-03-31T04:09:15;5.17;;;3.67;;
13566;SDS011;6855;48.112;11.298;2023-03-31T04:11:42;11.77;;;3.83;;
13566;SDS011;6855;48.112;11.298;2023-03-31T04:14:10;10.30;;;5.60;;
13566;SDS011;6855;48.112;11.298;2023-03-31T04:16:37;13.40;;;5.40;;
13566;SDS011;6855;48.112;11.298;2023-03-31T04:19:04;10.57;;;4.87;;
13566;SDS011;6855;48.112;11.298;2023-03-31T04:21:32;11.30;;;4.67;;
13566;SDS011;6855;48.112;11.298;2023-03-31T04:24:00;8.17;;;4.13;;
13566;SDS011;6855;48.112;11.298;2023-03-31T04:26:30;9.93;;;4.60;;
13566;SDS011;6855;48.112;11.298;2023-03-31T04:29:03;9.17;;;3.93;;
13566;SDS011;6855;48.112;11.298;2023-03-31T04:31:34;10.33;;;4.80;;
13566;SDS011;6855;48.112;11.298;2023-03-31T04:34:02;7.27;;;4.33;;
13566;SDS011;6855;48.112;11.298;2023-03-31T04:36:30;6.73;;;4.03;;
13566;SDS011;6855;48.112;11.298;2023-03-31T04:38:58;5.70;;;4.50;;
13566;SDS011;6855;48.112;11.298;2023-03-31T04:41:25;11.70;;;4.43;;
13566;SDS011;6855;48.112;11.298;2023-03-31T04:43:54;6.00;;;4.63;;
13566;SDS011;6855;48.112;11.298;2023-03-31T04:46:21;10.93;;;5.07;;
13566;SDS011;6855;48.112;11.298;2023-03-31T04:48:49;9.70;;;5.20;;
13566;SDS011;6855;48.112;11.298;2023-03-31T04:51:16;9.70;;;4.83;;
13566;SDS011;6855;48.112;11.298;2023-03-31T04:53:44;10.20;;;5.10;;
13566;SDS011;6855;48.112;11.298;2023-03-31T04:56:11;8.53;;;4.30;;
13566;SDS011;6855;48.112;11.298;2023-03-31T04:58:38;9.53;;;3.97;;
13566;SDS011;6855;48.112;11.298;2023-03-31T05:01:07;12.45;;;4.35;;
13566;SDS011;6855;48.112;11.298;2023-03-31T05:03:37;12.45;;;5.80;;
13566;SDS011;6855;48.112;11.298;2023-03-31T05:06:05;8.30;;;4.50;;
13566;SDS011;6855;48.112;11.298;2023-03-31T05:08:32;5.87;;;3.93;;
13566;SDS011;6855;48.112;11.298;2023-03-31T05:11:01;7.33;;;4.43;;
13566;SDS011;6855;48.112;11.298;2023-03-31T05:13:28;6.70;;;4.10;;
13566;SDS011;6855;48.112;11.298;2023-03-31T05:15:55;10.63;;;4.73;;
13566;SDS011;6855;48.112;11.298;2023-03-31T05:18:24;7.03;;;4.43;;
13566;SDS011;6855;48.112;11.298;2023-03-31T05:20:51;8.67;;;4.83;;
13566;SDS011;6855;48.112;11.298;2023-03-31T05:23:18;7.60;;;4.67;;
13566;SDS011;6855;48.112;11.298;2023-03-31T05:25:46;13.30;;;4.93;;
13566;SDS011;6855;48.112;11.298;2023-03-31T05:28:13;7.77;;;4.60;;
13566;SDS011;6855;48.112;11.298;2023-03-31T05:30:40;16.03;;;4.30;;
13566;SDS011;6855;48.112;11.298;2023-03-31T05:33:07;11.67;;;4.40;;
13566;SDS011;6855;48.112;11.298;2023-03-31T05:35:36;10.97;;;4.80;;
13566;SDS011;6855;48.112;11.298;2023-03-31T05:38:03;7.60;;;4.53;;
13566;SDS011;6855;48.112;11.298;2023-03-31T05:40:30;11.37;;;5.10;;
13566;SDS011;6855;48.112;11.298;2023-03-31T05:42:57;9.53;;;5.07;;
13566;SDS011;6855;48.112;11.298;2023-03-31T05:45:25;9.60;;;4.17;;
13566;SDS011;6855;48.112;11.298;2023-03-31T05:47:52;11.83;;;4.57;;
13566;SDS011;6855;48.112;11.298;2023-03-31T05:50:19;11.13;;;4.07;;
13566;SDS011;6855;48.112;11.298;2023-03-31T05:52:48;10.60;;;4.53;;
13566;SDS011;6855;48.112;11.298;2023-03-31T05:55:15;7.93;;;4.77;;
13566;SDS011;6855;48.112;11.298;2023-03-31T05:57:42;8.10;;;4.63;;
13566;SDS011;6855;48.112;11.298;2023-03-31T06:00:10;7.67;;;3.83;;
13566;SDS011;6855;48.112;11.298;2023-03-31T06:02:41;9.63;;;3.87;;
13566;SDS011;6855;48.112;11.298;2023-03-31T06:05:11;7.97;;;4.53;;
13566;SDS011;6855;48.112;11.298;2023-03-31T06:07:38;7.10;;;4.70;;
13566;SDS011;6855;48.112;11.298;2023-03-31T06:10:07;10.53;;;4.23;;
13566;SDS011;6855;48.112;11.298;2023-03-31T06:12:38;12.50;;;4.90;;
13566;SDS011;6855;48.112;11.298;2023-03-31T06:15:05;9.90;;;4.40;;
13566;SDS011;6855;48.112;11.298;2023-03-31T06:17:33;8.80;;;4.73;;
13566;SDS011;6855;48.112;11.298;2023-03-31T06:20:00;11.77;;;4.47;;
13566;SDS011;6855;48.112;11.298;2023-03-31T06:22:28;4.70;;;3.30;;
13566;SDS011;6855;48.112;11.298;2023-03-31T06:24:55;7.30;;;3.60;;
13566;SDS011;6855;48.112;11.298;2023-03-31T06:27:24;7.50;;;3.63;;
13566;SDS011;6855;48.112;11.298;2023-03-31T06:29:51;6.53;;;3.60;;
13566;SDS011;6855;48.112;11.298;2023-03-31T06:32:18;11.00;;;4.37;;
13566;SDS011;6855;48.112;11.298;2023-03-31T06:34:46;7.40;;;3.90;;
13566;SDS011;6855;48.112;11.298;2023-03-31T06:37:13;10.23;;;4.70;;
13566;SDS011;6855;48.112;11.298;2023-03-31T06:39:40;5.83;;;4.10;;
13566;SDS011;6855;48.112;11.298;2023-03-31T06:42:08;11.60;;;4.07;;
13566;SDS011;6855;48.112;11.298;2023-03-31T06:44:37;7.27;;;4.10;;
13566;SDS011;6855;48.112;11.298;2023-03-31T06:47:04;8.13;;;3.90;;
13566;SDS011;6855;48.112;11.298;2023-03-31T06:49:31;9.30;;;4.10;;
13566;SDS011;6855;48.112;11.298;2023-03-31T06:51:58;6.90;;;3.70;;
13566;SDS011;6855;48.112;11.298;2023-03-31T06:54:26;5.80;;;3.80;;
13566;SDS011;6855;48.112;11.298;2023-03-31T06:56:53;5.33;;;4.20;;
13566;SDS011;6855;48.112;11.298;2023-03-31T06:59:20;5.30;;;4.20;;
13566;SDS011;6855;48.112;11.298;2023-03-31T07:01:48;13.30;;;4.80;;
13566;SDS011;6855;48.112;11.298;2023-03-31T07:04:15;6.67;;;4.27;;
13566;SDS011;6855;48.112;11.298;2023-03-31T07:06:43;9.27;;;4.63;;
13566;SDS011;6855;48.112;11.298;2023-03-31T07:09:10;10.70;;;3.43;;
13566;SDS011;6855;48.112;11.298;2023-03-31T07:11:37;6.37;;;3.97;;
13566;SDS011;6855;48.112;11.298;2023-03-31T07:14:04;13.60;;;4.30;;
13566;SDS011;6855;48.112;11.298;2023-03-31T07:16:31;8.90;;;4.17;;
13566;SDS011;6855;48.112;11.298;2023-03-31T07:19:01;7.77;;;4.37;;
13566;SDS011;6855;48.112;11.298;2023-03-31T07:21:30;11.80;;;4.40;;
13566;SDS011;6855;48.112;11.298;2023-03-31T07:23:57;8.50;;;4.20;;
13566;SDS011;6855;48.112;11.298;2023-03-31T07:26:24;6.27;;;4.20;;
13566;SDS011;6855;48.112;11.298;2023-03-31T07:28:52;7.23;;;4.13;;
13566;SDS011;6855;48.112;11.298;2023-03-31T07:31:20;7.87;;;4.90;;
13566;SDS011;6855;48.112;11.298;2023-03-31T07:33:48;16.47;;;5.57;;
13566;SDS011;6855;48.112;11.298;2023-03-31T07:36:16;8.53;;;3.93;;
13566;SDS011;6855;48.112;11.298;2023-03-31T07:38:44;9.03;;;4.67;;
13566;SDS011;6855;48.112;11.298;2023-03-31T07:41:13;10.77;;;4.80;;
13566;SDS011;6855;48.112;11.298;2023-03-31T07:43:41;15.17;;;5.80;;
13566;SDS011;6855;48.112;11.298;2023-03-31T07:46:12;10.50;;;5.70;;
13566;SDS011;6855;48.112;11.298;2023-03-31T07:48:39;14.03;;;6.83;;
13566;SDS011;6855;48.112;11.298;2023-03-31T07:51:08;22.93;;;10.27;;
13566;SDS011;6855;48.112;11.298;2023-03-31T07:53:36;17.90;;;9.23;;
13566;SDS011;6855;48.112;11.298;2023-03-31T07:56:03;12.13;;;7.20;;
13566;SDS011;6855;48.112;11.298;2023-03-31T07:58:31;14.47;;;7.87;;
13566;SDS011;6855;48.112;11.298;2023-03-31T08:00:58;19.50;;;8.33;;
13566;SDS011;6855;48.112;11.298;2023-03-31T08:03:26;7.70;;;5.50;;
13566;SDS011;6855;48.112;11.298;2023-03-31T08:05:53;8.00;;;4.97;;
13566;SDS011;6855;48.112;11.298;2023-03-31T08:08:20;10.40;;;5.10;;
13566;SDS011;6855;48.112;11.298;2023-03-31T08:10:49;13.13;;;5.00;;
13566;SDS011;6855;48.112;11.298;2023-03-31T08:13:16;7.00;;;4.43;;
13566;SDS011;6855;48.112;11.298;2023-03-31T08:15:43;7.17;;;3.80;;
13566;SDS011;6855;48.112;11.298;2023-03-31T08:18:11;9.80;;;4.97;;
13566;SDS011;6855;48.112;11.298;2023-03-31T08:20:38;13.77;;;4.40;;
13566;SDS011;6855;48.112;11.298;2023-03-31T08:23:05;8.00;;;3.93;;
13566;SDS011;6855;48.112;11.298;2023-03-31T08:25:35;7.27;;;3.90;;
13566;SDS011;6855;48.112;11.298;2023-03-31T08:28:04;5.17;;;3.57;;
13566;SDS011;6855;48.112;11.298;2023-03-31T08:30:35;5.50;;;3.70;;
13566;SDS011;6855;48.112;11.298;2023-03-31T08:33:02;6.10;;;3.30;;
13566;SDS011;6855;48.112;11.298;2023-03-31T08:35:30;7.00;;;3.30;;
13566;SDS011;6855;48.112;11.298;2023-03-31T08:37:57;4.40;;;2.93;;
13566;SDS011;6855;48.112;11.298;2023-03-31T08:40:25;4.30;;;2.63;;
13566;SDS011;6855;48.112;11.298;2023-03-31T08:42:54;2.60;;;2.30;;
13566;SDS011;6855;48.112;11.298;2023-03-31T08:45:23;5.00;;;2.63;;
13566;SDS011;6855;48.112;11.298;2023-03-31T08:47:52;5.37;;;2.90;;
13566;SDS011;6855;48.112;11.298;2023-03-31T08:50:22;5.03;;;2.50;;
13566;SDS011;6855;48.112;11.298;2023-03-31T08:52:54;7.57;;;2.80;;
13566;SDS011;6855;48.112;11.298;2023-03-31T08:55:23;6.10;;;2.90;;
13566;SDS011;6855;48.112;11.298;2023-03-31T08:57:53;4.53;;;2.90;;
13566;SDS011;6855;48.112;11.298;2023-03-31T09:00:24;5.80;;;2.60;;
13566;SDS011;6855;48.112;11.298;2023-03-31T09:02:54;9.57;;;3.37;;
13566;SDS011;6855;48.112;11.298;2023-03-31T09:05:32;4.97;;;2.40;;
13566;SDS011;6855;48.112;11.298;2023-03-31T09:08:03;6.33;;;3.23;;
13566;SDS011;6855;48.112;11.298;2023-03-31T09:10:35;5.03;;;2.63;;
13566;SDS011;6855;48.112;11.298;2023-03-31T09:13:06;3.17;;;2.40;;
13566;SDS011;6855;48.112;11.298;2023-03-31T09:15:38;3.80;;;2.40;;
13566;SDS011;6855;48.112;11.298;2023-03-31T09:18:09;8.83;;;3.70;;
13566;SDS011;6855;48.112;11.298;2023-03-31T09:20:41;3.93;;;1.70;;
13566;SDS011;6855;48.112;11.298;2023-03-31T09:23:12;2.63;;;1.63;;
13566;SDS011;6855;48.112;11.298;2023-03-31T09:25:45;3.93;;;1.77;;
13566;SDS011;6855;48.112;11.298;2023-03-31T09:28:13;3.00;;;1.30;;
13566;SDS011;6855;48.112;11.298;2023-03-31T09:30:46;1.43;;;1.33;;
13566;SDS011;6855;48.112;11.298;2023-03-31T09:33:15;1.87;;;1.43;;
13566;SDS011;6855;48.112;11.298;2023-03-31T09:35:43;1.73;;;1.63;;
13566;SDS011;6855;48.112;11.298;2023-03-31T09:38:11;1.50;;;1.20;;
13566;SDS011;6855;48.112;11.298;2023-03-31T09:40:39;4.43;;;1.93;;
13566;SDS011;6855;48.112;11.298;2023-03-31T09:43:07;3.70;;;1.93;;
13566;SDS011;6855;48.112;11.298;2023-03-31T09:45:35;3.73;;;1.97;;
13566;SDS011;6855;48.112;11.298;2023-03-31T09:48:04;1.90;;;1.70;;
13566;SDS011;6855;48.112;11.298;2023-03-31T09:50:35;2.47;;;1.70;;
13566;SDS011;6855;48.112;11.298;2023-03-31T09:53:06;3.63;;;1.80;;
13566;SDS011;6855;48.112;11.298;2023-03-31T09:55:40;1.70;;;1.60;;
13566;SDS011;6855;48.112;11.298;2023-03-31T09:58:11;2.10;;;1.90;;
13566;SDS011;6855;48.112;11.298;2023-03-31T10:00:39;2.07;;;1.50;;
13566;SDS011;6855;48.112;11.298;2023-03-31T10:03:10;1.87;;;1.30;;
13566;SDS011;6855;48.112;11.298;2023-03-31T10:05:38;3.93;;;1.80;;
13566;SDS011;6855;48.112;11.298;2023-03-31T10:08:13;3.03;;;1.53;;
13566;SDS011;6855;48.112;11.298;2023-03-31T10:10:44;1.83;;;1.63;;
13566;SDS011;6855;48.112;11.298;2023-03-31T10:13:13;2.30;;;1.60;;
13566;SDS011;6855;48.112;11.298;2023-03-31T10:15:41;5.33;;;2.20;;
13566;SDS011;6855;48.112;11.298;2023-03-31T10:18:13;2.67;;;1.73;;
13566;SDS011;6855;48.112;11.298;2023-03-31T10:20:42;2.53;;;1.70;;
13566;SDS011;6855;48.112;11.298;2023-03-31T10:23:14;4.23;;;2.07;;
13566;SDS011;6855;48.112;11.298;2023-03-31T10:25:41;4.50;;;1.93;;
13566;SDS011;6855;48.112;11.298;2023-03-31T10:28:10;2.37;;;1.40;;
13566;SDS011;6855;48.112;11.298;2023-03-31T10:30:38;6.33;;;1.83;;
13566;SDS011;6855;48.112;11.298;2023-03-31T10:33:06;4.90;;;1.67;;
13566;SDS011;6855;48.112;11.298;2023-03-31T10:35:39;3.20;;;1.70;;
13566;SDS011;6855;48.112;11.298;2023-03-31T10:38:09;4.10;;;1.87;;
13566;SDS011;6855;48.112;11.298;2023-03-31T10:40:37;4.30;;;1.73;;
13566;SDS011;6855;48.112;11.298;2023-03-31T10:43:08;3.47;;;1.60;;
13566;SDS011;6855;48.112;11.298;2023-03-31T10:45:40;3.63;;;1.80;;
13566;SDS011;6855;48.112;11.298;2023-03-31T10:48:16;3.67;;;2.10;;
13566;SDS011;6855;48.112;11.298;2023-03-31T10:50:44;8.73;;;2.17;;
13566;SDS011;6855;48.112;11.298;2023-03-31T10:53:12;6.00;;;2.20;;
13566;SDS011;6855;48.112;11.298;2023-03-31T10:55:40;2.30;;;1.53;;
13566;SDS011;6855;48.112;11.298;2023-03-31T10:58:18;3.80;;;2.40;;
13566;SDS011;6855;48.112;11.298;2023-03-31T11:00:52;5.67;;;2.43;;
13566;SDS011;6855;48.112;11.298;2023-03-31T11:03:31;6.10;;;2.30;;
13566;SDS011;6855;48.112;11.298;2023-03-31T11:06:05;7.77;;;2.50;;
13566;SDS011;6855;48.112;11.298;2023-03-31T11:08:39;3.87;;;2.30;;
13566;SDS011;6855;48.112;11.298;2023-03-31T11:11:22;2.43;;;1.50;;
13566;SDS011;6855;48.112;11.298;2023-03-31T11:13:54;1.50;;;1.40;;
13566;SDS011;6855;48.112;11.298;2023-03-31T11:16:23;3.90;;;1.50;;
13566;SDS011;6855;48.112;11.298;2023-03-31T11:19:02;1.87;;;0.87;;
13566;SDS011;6855;48.112;11.298;2023-03-31T11:21:37;1.93;;;1.10;;
13566;SDS011;6855;48.112;11.298;2023-03-31T11:24:11;2.50;;;1.37;;
13566;SDS011;6855;48.112;11.298;2023-03-31T11:26:43;1.67;;;1.07;;
13566;SDS011;6855;48.112;11.298;2023-03-31T11:29:15;1.20;;;1.10;;
13566;SDS011;6855;48.112;11.298;2023-03-31T11:31:46;4.27;;;1.23;;
13566;SDS011;6855;48.112;11.298;2023-03-31T11:34:22;2.20;;;1.10;;
13566;SDS011;6855;48.112;11.298;2023-03-31T11:36:59;1.90;;;1.23;;
13566;SDS011;6855;48.112;11.298;2023-03-31T11:39:35;2.13;;;1.10;;
13566;SDS011;6855;48.112;11.298;2023-03-31T11:42:07;2.13;;;1.10;;
13566;SDS011;6855;48.112;11.298;2023-03-31T11:44:35;2.30;;;1.17;;
13566;SDS011;6855;48.112;11.298;2023-03-31T11:47:07;2.30;;;1.10;;
13566;SDS011;6855;48.112;11.298;2023-03-31T11:49:36;2.83;;;0.90;;
13566;SDS011;6855;48.112;11.298;2023-03-31T11:52:08;5.80;;;1.00;;
13566;SDS011;6855;48.112;11.298;2023-03-31T11:54:39;1.53;;;1.10;;
13566;SDS011;6855;48.112;11.298;2023-03-31T11:57:09;1.83;;;1.40;;
13566;SDS011;6855;48.112;11.298;2023-03-31T11:59:39;5.40;;;2.37;;
13566;SDS011;6855;48.112;11.298;2023-03-31T12:02:09;2.30;;;1.10;;
13566;SDS011;6855;48.112;11.298;2023-03-31T12:04:41;3.70;;;1.70;;
13566;SDS011;6855;48.112;11.298;2023-03-31T12:07:16;1.17;;;0.97;;
13566;SDS011;6855;48.112;11.298;2023-03-31T12:09:51;2.30;;;1.20;;
13566;SDS011;6855;48.112;11.298;2023-03-31T12:12:19;2.43;;;1.20;;
13566;SDS011;6855;48.112;11.298;2023-03-31T12:14:49;2.10;;;1.07;;
13566;SDS011;6855;48.112;11.298;2023-03-31T12:17:18;1.17;;;1.07;;
13566;SDS011;6855;48.112;11.298;2023-03-31T12:19:46;0.90;;;0.70;;
13566;SDS011;6855;48.112;11.298;2023-03-31T12:22:17;2.93;;;1.20;;
13566;SDS011;6855;48.112;11.298;2023-03-31T12:24:45;1.40;;;0.90;;
13566;SDS011;6855;48.112;11.298;2023-03-31T12:27:13;2.30;;;1.20;;
13566;SDS011;6855;48.112;11.298;2023-03-31T12:29:43;1.30;;;1.10;;
13566;SDS011;6855;48.112;11.298;2023-03-31T12:32:13;1.87;;;1.20;;
13566;SDS011;6855;48.112;11.298;2023-03-31T12:34:43;5.93;;;1.43;;
13566;SDS011;6855;48.112;11.298;2023-03-31T12:40:02;1.33;;;1.03;;
13566;SDS011;6855;48.112;11.298;2023-03-31T12:42:46;6.47;;;1.40;;
13566;SDS011;6855;48.112;11.298;2023-03-31T12:45:17;4.07;;;1.30;;
13566;SDS011;6855;48.112;11.298;2023-03-31T12:50:35;3.83;;;1.67;;
13566;SDS011;6855;48.112;11.298;2023-03-31T12:53:10;2.90;;;1.80;;
13566;SDS011;6855;48.112;11.298;2023-03-31T12:55:41;2.67;;;1.20;;
13566;SDS011;6855;48.112;11.298;2023-03-31T12:58:31;2.30;;;1.43;;
13566;SDS011;6855;48.112;11.298;2023-03-31T13:01:04;4.10;;;1.00;;
13566;SDS011;6855;48.112;11.298;2023-03-31T13:03:36;3.07;;;0.80;;
13566;SDS011;6855;48.112;11.298;2023-03-31T13:06:04;1.23;;;0.80;;
13566;SDS011;6855;48.112;11.298;2023-03-31T13:11:18;3.13;;;0.80;;
13566;SDS011;6855;48.112;11.298;2023-03-31T13:13:51;0.70;;;0.60;;
13566;SDS011;6855;48.112;11.298;2023-03-31T13:16:23;2.17;;;0.90;;
13566;SDS011;6855;48.112;11.298;2023-03-31T13:18:50;6.33;;;1.00;;
13566;SDS011;6855;48.112;11.298;2023-03-31T13:21:18;3.73;;;0.80;;
13566;SDS011;6855;48.112;11.298;2023-03-31T13:23:46;2.10;;;0.80;;
13566;SDS011;6855;48.112;11.298;2023-03-31T13:29:11;1.67;;;0.93;;
13566;SDS011;6855;48.112;11.298;2023-03-31T13:34:31;3.33;;;1.13;;
13566;SDS011;6855;48.112;11.298;2023-03-31T13:37:03;2.67;;;0.70;;
13566;SDS011;6855;48.112;11.298;2023-03-31T13:39:48;1.93;;;0.90;;
13566;SDS011;6855;48.112;11.298;2023-03-31T13:42:24;2.43;;;1.03;;
13566;SDS011;6855;48.112;11.298;2023-03-31T13:45:03;3.00;;;1.10;;
13566;SDS011;6855;48.112;11.298;2023-03-31T13:50:28;1.03;;;0.60;;
13566;SDS011;6855;48.112;11.298;2023-03-31T13:52:57;3.30;;;1.03;;
13566;SDS011;6855;48.112;11.298;2023-03-31T13:58:19;1.30;;;0.80;;
13566;SDS011;6855;48.112;11.298;2023-03-31T14:00:53;4.20;;;0.93;;
13566;SDS011;6855;48.112;11.298;2023-03-31T14:03:33;3.93;;;1.30;;
13566;SDS011;6855;48.112;11.298;2023-03-31T14:06:04;2.67;;;1.10;;
13566;SDS011;6855;48.112;11.298;2023-03-31T14:08:38;2.60;;;1.10;;
13566;SDS011;6855;48.112;11.298;2023-03-31T14:11:14;1.80;;;0.70;;
13566;SDS011;6855;48.112;11.298;2023-03-31T14:13:41;3.93;;;1.10;;
13566;SDS011;6855;48.112;11.298;2023-03-31T14:16:10;3.13;;;1.07;;
13566;SDS011;6855;48.112;11.298;2023-03-31T14:18:40;2.90;;;1.10;;
13566;SDS011;6855;48.112;11.298;2023-03-31T14:21:14;1.70;;;0.80;;
13566;SDS011;6855;48.112;11.298;2023-03-31T14:23:53;1.30;;;0.83;;
13566;SDS011;6855;48.112;11.298;2023-03-31T14:26:29;4.63;;;1.13;;
13566;SDS011;6855;48.112;11.298;2023-03-31T14:29:08;2.80;;;0.70;;
13566;SDS011;6855;48.112;11.298;2023-03-31T14:31:40;2.40;;;0.70;;
13566;SDS011;6855;48.112;11.298;2023-03-31T14:34:21;1.77;;;0.90;;
13566;SDS011;6855;48.112;11.298;2023-03-31T14:36:54;2.33;;;0.60;;
13566;SDS011;6855;48.112;11.298;2023-03-31T14:39:29;3.30;;;0.70;;
13566;SDS011;6855;48.112;11.298;2023-03-31T14:43:37;2.60;;;0.80;;
13566;SDS011;6855;48.112;11.298;2023-03-31T14:44:54;1.63;;;0.80;;
13566;SDS011;6855;48.112;11.298;2023-03-31T14:47:50;3.60;;;0.77;;
13566;SDS011;6855;48.112;11.298;2023-03-31T14:50:20;1.70;;;0.70;;
13566;SDS011;6855;48.112;11.298;2023-03-31T14:52:48;1.47;;;0.80;;
13566;SDS011;6855;48.112;11.298;2023-03-31T14:55:20;1.03;;;0.70;;
13566;SDS011;6855;48.112;11.298;2023-03-31T14:57:55;2.40;;;0.80;;
13566;SDS011;6855;48.112;11.298;2023-03-31T15:00:39;2.10;;;0.73;;
13566;SDS011;6855;48.112;11.298;2023-03-31T15:03:15;3.33;;;1.00;;
13566;SDS011;6855;48.112;11.298;2023-03-31T15:05:43;1.10;;;0.80;;
13566;SDS011;6855;48.112;11.298;2023-03-31T15:08:11;2.57;;;0.90;;
13566;SDS011;6855;48.112;11.298;2023-03-31T15:10:40;2.60;;;1.13;;
13566;SDS011;6855;48.112;11.298;2023-03-31T15:13:10;1.70;;;0.93;;
13566;SDS011;6855;48.112;11.298;2023-03-31T15:15:38;4.07;;;1.07;;
13566;SDS011;6855;48.112;11.298;2023-03-31T15:18:09;2.17;;;0.97;;
13566;SDS011;6855;48.112;11.298;2023-03-31T15:20:38;2.30;;;0.90;;
13566;SDS011;6855;48.112;11.298;2023-03-31T15:23:17;4.13;;;1.07;;
13566;SDS011;6855;48.112;11.298;2023-03-31T15:25:48;2.83;;;0.80;;
13566;SDS011;6855;48.112;11.298;2023-03-31T15:28:17;2.53;;;0.87;;
13566;SDS011;6855;48.112;11.298;2023-03-31T15:30:44;1.57;;;1.03;;